createdAt,value
2019-02-24T00:00:40.246Z,9.43
2019-02-24T00:03:10.993Z,8.50
2019-02-24T00:05:41.249Z,10.17
2019-02-24T00:08:11.972Z,9.40
2019-02-24T00:10:42.217Z,8.70
2019-02-24T00:13:12.716Z,9.13
2019-02-24T00:15:43.037Z,10.83
2019-02-24T00:18:13.317Z,8.27
2019-02-24T00:20:43.540Z,10.40
2019-02-24T00:23:13.781Z,10.00
2019-02-24T00:25:44.104Z,8.97
2019-02-24T00:28:14.301Z,8.77
2019-02-24T00:30:44.759Z,8.47
2019-02-24T00:33:14.988Z,8.87
2019-02-24T00:35:45.277Z,18.53
2019-02-24T00:38:15.555Z,14.07
2019-02-24T00:40:45.753Z,12.50
2019-02-24T00:43:16.005Z,11.57
2019-02-24T00:45:46.260Z,9.30
2019-02-24T00:48:16.544Z,9.90
2019-02-24T00:50:46.781Z,10.43
2019-02-24T00:53:17.009Z,9.60
2019-02-24T00:55:47.259Z,9.10
2019-02-24T00:58:17.492Z,9.10
2019-02-24T01:00:47.776Z,9.63
2019-02-24T01:03:18.292Z,11.77
2019-02-24T01:05:48.677Z,10.27
2019-02-24T01:08:19.082Z,9.23
2019-02-24T01:10:49.333Z,8.77
2019-02-24T01:13:20.574Z,9.40
2019-02-24T01:15:50.807Z,9.93
2019-02-24T01:18:21.031Z,8.40
2019-02-24T01:20:51.330Z,8.60
2019-02-24T01:23:21.557Z,8.77
2019-02-24T01:25:51.978Z,8.67
2019-02-24T01:28:25.353Z,8.87
2019-02-24T01:30:54.087Z,8.87
2019-02-24T01:33:25.657Z,8.90
2019-02-24T01:35:55.890Z,10.17
2019-02-24T01:38:26.095Z,9.13
2019-02-24T01:40:56.273Z,8.40
2019-02-24T01:43:26.539Z,9.63
2019-02-24T01:45:56.791Z,9.33
2019-02-24T01:48:27.024Z,9.60
2019-02-24T01:50:57.216Z,11.47
2019-02-24T01:53:27.948Z,11.30
2019-02-24T01:55:59.194Z,11.10
2019-02-24T01:58:35.081Z,9.67
2019-02-24T02:01:02.334Z,11.03
2019-02-24T02:03:32.771Z,10.43
2019-02-24T02:06:03.081Z,10.90
2019-02-24T02:08:33.507Z,9.87
2019-02-24T02:11:03.697Z,9.30
2019-02-24T02:13:33.909Z,9.60
2019-02-24T02:16:04.123Z,9.50
2019-02-24T02:18:34.313Z,8.47
2019-02-24T02:21:04.564Z,8.87
2019-02-24T02:23:34.843Z,9.27
2019-02-24T02:26:05.304Z,9.73
2019-02-24T02:28:43.598Z,9.53
2019-02-24T02:31:07.494Z,8.53
2019-02-24T02:33:37.769Z,9.37
2019-02-24T02:36:08.076Z,8.17
2019-02-24T02:38:38.374Z,10.07
2019-02-24T02:41:08.562Z,9.77
2019-02-24T02:43:38.825Z,8.37
2019-02-24T02:46:09.100Z,9.33
2019-02-24T02:48:39.317Z,9.60
2019-02-24T02:51:09.688Z,9.33
2019-02-24T02:53:39.921Z,12.57
2019-02-24T02:56:10.236Z,13.00
2019-02-24T02:58:40.460Z,11.00
2019-02-24T03:01:10.702Z,11.73
2019-02-24T03:03:41.121Z,10.50
2019-02-24T03:06:16.688Z,10.30
2019-02-24T03:08:51.871Z,10.60
2019-02-24T03:11:22.102Z,8.93
2019-02-24T03:13:52.312Z,10.20
2019-02-24T03:16:27.888Z,9.67
2019-02-24T03:18:58.159Z,9.77
2019-02-24T03:21:28.385Z,10.03
2019-02-24T03:23:58.813Z,10.03
2019-02-24T03:26:29.030Z,11.93
2019-02-24T03:29:04.080Z,11.13
2019-02-24T03:31:31.292Z,10.20
2019-02-24T03:34:02.462Z,9.53
2019-02-24T03:36:32.765Z,9.53
2019-02-24T03:39:03.028Z,9.70
2019-02-24T03:41:34.385Z,9.77
2019-02-24T03:44:04.690Z,8.80
2019-02-24T03:46:34.938Z,8.33
2019-02-24T03:49:05.148Z,8.90
2019-02-24T03:51:35.439Z,8.87
2019-02-24T03:54:06.736Z,7.57
2019-02-24T03:56:37.018Z,9.50
2019-02-24T03:59:14.780Z,10.53
2019-02-24T04:01:39.259Z,8.73
2019-02-24T04:04:09.827Z,9.57
2019-02-24T04:06:40.757Z,9.20
2019-02-24T04:09:11.352Z,9.53
2019-02-24T04:11:43.873Z,9.57
2019-02-24T04:14:14.167Z,8.53
2019-02-24T04:16:44.409Z,8.63
2019-02-24T04:19:14.628Z,8.23
2019-02-24T04:21:44.872Z,8.80
2019-02-24T04:24:15.084Z,11.23
2019-02-24T04:26:45.416Z,8.97
2019-02-24T04:29:24.540Z,10.13
2019-02-24T04:31:47.592Z,9.70
2019-02-24T04:34:17.850Z,9.40
2019-02-24T04:36:49.048Z,9.93
2019-02-24T04:39:19.320Z,9.67
2019-02-24T04:41:49.604Z,9.40
2019-02-24T04:44:19.991Z,8.57
2019-02-24T04:46:50.278Z,9.57
2019-02-24T04:49:20.565Z,9.87
2019-02-24T04:51:50.823Z,9.47
2019-02-24T04:54:21.067Z,9.00
2019-02-24T04:56:51.284Z,9.63
2019-02-24T04:59:21.596Z,8.40
2019-02-24T05:01:51.859Z,8.90
2019-02-24T05:04:22.280Z,8.80
2019-02-24T05:06:52.625Z,9.63
2019-02-24T05:09:22.875Z,10.27
2019-02-24T05:11:53.150Z,9.53
2019-02-24T05:14:23.372Z,9.00
2019-02-24T05:16:53.624Z,9.57
2019-02-24T05:19:23.838Z,9.40
2019-02-24T05:21:53.993Z,8.43
2019-02-24T05:24:24.278Z,8.97
2019-02-24T05:26:54.516Z,9.93
2019-02-24T05:29:24.727Z,10.30
2019-02-24T05:31:55.161Z,9.77
2019-02-24T05:34:25.411Z,9.47
2019-02-24T05:36:55.640Z,10.13
2019-02-24T05:39:25.871Z,11.70
2019-02-24T05:41:56.066Z,10.97
2019-02-24T05:44:26.267Z,18.73
2019-02-24T05:46:56.660Z,12.03
2019-02-24T05:49:26.861Z,12.73
2019-02-24T05:51:57.107Z,11.57
2019-02-24T05:54:28.330Z,10.33
2019-02-24T05:56:58.624Z,9.97
2019-02-24T05:59:28.912Z,11.03
2019-02-24T06:01:59.337Z,10.63
2019-02-24T06:04:29.748Z,10.43
2019-02-24T06:06:59.978Z,9.87
2019-02-24T06:09:30.273Z,10.27
2019-02-24T06:12:00.472Z,9.50
2019-02-24T06:14:30.756Z,9.50
2019-02-24T06:17:00.975Z,9.80
2019-02-24T06:19:31.413Z,9.23
2019-02-24T06:22:01.682Z,8.63
2019-02-24T06:24:31.947Z,8.90
2019-02-24T06:27:02.180Z,9.60
2019-02-24T06:29:32.435Z,8.43
2019-02-24T06:32:02.680Z,10.87
2019-02-24T06:34:32.884Z,23.90
2019-02-24T06:37:03.118Z,13.87
2019-02-24T06:39:33.332Z,9.93
2019-02-24T06:42:03.633Z,9.87
2019-02-24T06:44:33.837Z,9.23
2019-02-24T06:47:04.017Z,9.40
2019-02-24T06:49:34.248Z,10.70
2019-02-24T06:52:04.516Z,9.93
2019-02-24T06:54:34.768Z,9.03
2019-02-24T06:57:05.018Z,8.70
2019-02-24T06:59:35.228Z,9.57
2019-02-24T07:02:05.439Z,10.53
2019-02-24T07:04:36.036Z,10.40
2019-02-24T07:07:07.430Z,11.37
2019-02-24T07:09:37.686Z,9.00
2019-02-24T07:12:08.771Z,9.60
2019-02-24T07:14:39.055Z,9.00
2019-02-24T07:17:09.266Z,9.93
2019-02-24T07:19:39.519Z,10.17
2019-02-24T07:22:09.748Z,10.20
2019-02-24T07:24:40.025Z,9.17
2019-02-24T07:27:10.251Z,9.27
2019-02-24T07:29:40.483Z,9.20
2019-02-24T07:32:10.702Z,9.87
2019-02-24T07:34:40.953Z,10.10
2019-02-24T07:37:13.179Z,9.50
2019-02-24T07:39:43.161Z,9.87
2019-02-24T07:42:13.407Z,10.27
2019-02-24T07:44:43.641Z,9.57
2019-02-24T07:47:13.879Z,10.17
2019-02-24T07:49:44.207Z,10.43
2019-02-24T07:52:14.430Z,8.77
2019-02-24T07:54:44.666Z,10.47
2019-02-24T07:57:14.903Z,9.00
2019-02-24T07:59:45.125Z,9.10
2019-02-24T08:02:15.381Z,10.17
2019-02-24T08:04:46.004Z,10.03
2019-02-24T08:07:16.206Z,9.27
2019-02-24T08:09:46.942Z,12.03
2019-02-24T08:12:17.251Z,12.37
2019-02-24T08:14:47.461Z,13.30
2019-02-24T08:17:18.715Z,11.43
2019-02-24T08:19:48.899Z,11.67
2019-02-24T08:22:20.136Z,10.50
2019-02-24T08:24:52.184Z,9.47
2019-02-24T08:27:22.532Z,10.87
2019-02-24T08:29:52.762Z,10.23
2019-02-24T08:32:23.028Z,11.17
2019-02-24T08:34:53.196Z,11.23
2019-02-24T08:37:23.536Z,11.60
2019-02-24T08:39:54.972Z,10.00
2019-02-24T08:42:26.317Z,10.30
2019-02-24T08:44:56.529Z,9.57
2019-02-24T08:47:26.758Z,9.57
2019-02-24T08:49:57.093Z,9.93
2019-02-24T08:52:27.260Z,9.93
2019-02-24T08:54:57.618Z,8.97
2019-02-24T08:57:27.826Z,8.93
2019-02-24T08:59:58.077Z,8.60
2019-02-24T09:02:28.285Z,10.17
2019-02-24T09:04:58.934Z,10.67
2019-02-24T09:07:29.117Z,10.23
2019-02-24T09:09:59.293Z,10.20
2019-02-24T09:12:29.514Z,10.27
2019-02-24T09:14:59.763Z,10.10
2019-02-24T09:17:30.048Z,10.23
2019-02-24T09:20:00.360Z,10.67
2019-02-24T09:22:32.688Z,8.57
2019-02-24T09:25:03.481Z,9.30
2019-02-24T09:27:33.821Z,10.97
2019-02-24T09:30:04.531Z,9.80
2019-02-24T09:32:34.848Z,10.67
2019-02-24T09:35:05.223Z,9.67
2019-02-24T09:37:35.463Z,9.83
2019-02-24T09:40:08.792Z,9.87
2019-02-24T09:42:39.079Z,9.47
2019-02-24T09:45:09.549Z,9.40
2019-02-24T09:47:46.394Z,9.73
2019-02-24T09:50:12.065Z,9.67
2019-02-24T09:52:42.349Z,9.23
2019-02-24T09:55:12.688Z,11.17
2019-02-24T09:57:42.947Z,10.67
2019-02-24T10:00:13.249Z,9.67
2019-02-24T10:02:48.415Z,9.13
2019-02-24T10:05:19.018Z,9.60
2019-02-24T10:07:49.305Z,8.90
2019-02-24T10:10:20.484Z,9.53
2019-02-24T10:12:50.709Z,9.00
2019-02-24T10:15:21.073Z,9.70
2019-02-24T10:17:51.443Z,8.37
2019-02-24T10:20:21.684Z,8.40
2019-02-24T10:22:53.731Z,9.63
2019-02-24T10:25:24.055Z,7.67
2019-02-24T10:27:54.362Z,8.07
2019-02-24T10:30:24.541Z,8.57
2019-02-24T10:32:54.913Z,7.63
2019-02-24T10:35:25.094Z,8.13
2019-02-24T10:37:55.463Z,8.83
2019-02-24T10:40:25.723Z,8.10
2019-02-24T10:42:55.998Z,8.67
2019-02-24T10:45:26.333Z,8.30
2019-02-24T10:47:56.593Z,8.73
2019-02-24T10:50:27.106Z,9.50
2019-02-24T10:52:57.307Z,7.80
2019-02-24T10:55:27.532Z,9.23
2019-02-24T10:57:57.763Z,7.57
2019-02-24T11:00:28.968Z,8.40
2019-02-24T11:02:59.219Z,8.00
2019-02-24T11:05:30.023Z,9.57
2019-02-24T11:08:00.261Z,8.70
2019-02-24T11:10:30.548Z,8.73
2019-02-24T11:13:00.741Z,9.27
2019-02-24T11:15:30.945Z,9.67
2019-02-24T11:18:01.600Z,9.27
2019-02-24T11:20:32.028Z,9.57
2019-02-24T11:23:02.251Z,9.37
2019-02-24T11:25:32.459Z,9.73
2019-02-24T11:28:06.774Z,9.17
2019-02-24T11:30:38.571Z,8.70
2019-02-24T11:33:17.762Z,8.40
2019-02-24T11:35:51.560Z,7.73
2019-02-24T11:38:31.911Z,8.23
2019-02-24T11:41:02.458Z,9.50
2019-02-24T11:43:38.171Z,7.97
2019-02-24T11:46:08.810Z,7.73
2019-02-24T11:48:40.898Z,7.60
2019-02-24T11:51:11.109Z,7.77
2019-02-24T11:53:41.443Z,9.07
2019-02-24T11:56:12.799Z,8.67
2019-02-24T11:58:43.010Z,7.47
2019-02-24T12:01:13.414Z,7.23
2019-02-24T12:03:44.310Z,8.10
2019-02-24T12:06:15.111Z,7.87
2019-02-24T12:08:45.304Z,7.53
2019-02-24T12:11:15.513Z,6.37
2019-02-24T12:13:45.814Z,6.53
2019-02-24T12:16:16.297Z,6.63
2019-02-24T12:19:14.865Z,7.23
2019-02-24T12:21:49.262Z,7.20
2019-02-24T12:24:31.572Z,7.37
2019-02-24T12:27:01.784Z,6.93
2019-02-24T12:29:32.106Z,6.77
2019-02-24T12:32:09.484Z,6.17
2019-02-24T12:34:39.707Z,6.40
2019-02-24T12:37:21.437Z,5.97
2019-02-24T12:39:52.993Z,6.27
2019-02-24T12:42:26.179Z,7.40
2019-02-24T12:44:56.577Z,5.20
2019-02-24T12:47:26.866Z,4.97
2019-02-24T12:50:03.235Z,5.17
2019-02-24T12:52:29.166Z,4.73
2019-02-24T12:54:59.510Z,4.13
2019-02-24T12:57:38.618Z,4.30
2019-02-24T13:00:14.382Z,4.83
2019-02-24T13:02:44.639Z,5.50
2019-02-24T13:05:14.856Z,6.57
2019-02-24T13:07:45.070Z,5.27
2019-02-24T13:10:16.002Z,5.13
2019-02-24T13:12:46.288Z,5.87
2019-02-24T13:15:16.833Z,5.17
2019-02-24T13:17:47.858Z,4.67
2019-02-24T13:20:18.072Z,4.33
2019-02-24T13:22:48.272Z,4.07
2019-02-24T13:25:19.492Z,4.10
2019-02-24T13:27:49.836Z,4.80
2019-02-24T13:30:20.157Z,5.27
2019-02-24T13:32:50.462Z,4.87
2019-02-24T13:35:20.657Z,5.00
2019-02-24T13:37:50.873Z,5.03
2019-02-24T13:40:21.214Z,4.50
2019-02-24T13:42:51.465Z,4.50
2019-02-24T13:45:21.685Z,4.83
2019-02-24T13:47:51.881Z,5.23
2019-02-24T13:50:22.188Z,4.67
2019-02-24T13:52:52.530Z,4.47
2019-02-24T13:55:22.806Z,4.80
2019-02-24T13:57:57.762Z,5.03
2019-02-24T14:00:28.164Z,5.00
2019-02-24T14:02:58.415Z,4.60
2019-02-24T14:05:50.701Z,5.10
2019-02-24T14:08:21.281Z,4.70
2019-02-24T14:10:52.248Z,4.30
2019-02-24T14:13:24.208Z,5.43
2019-02-24T14:15:54.488Z,5.23
2019-02-24T14:18:30.209Z,5.17
2019-02-24T14:21:08.595Z,5.63
2019-02-24T14:23:39.070Z,5.23
2019-02-24T14:26:11.009Z,6.33
2019-02-24T14:28:41.308Z,5.93
2019-02-24T14:31:13.850Z,5.93
2019-02-24T14:33:44.182Z,5.73
2019-02-24T14:36:14.535Z,6.23
2019-02-24T14:38:47.940Z,5.70
2019-02-24T14:41:18.137Z,5.13
2019-02-24T14:43:50.963Z,5.00
2019-02-24T14:46:21.859Z,4.23
2019-02-24T14:48:52.106Z,3.97
2019-02-24T14:51:22.411Z,4.03
2019-02-24T14:53:52.644Z,4.33
2019-02-24T14:56:22.882Z,3.50
2019-02-24T14:59:32.707Z,4.00
2019-02-24T15:02:07.373Z,3.90
2019-02-24T15:04:46.486Z,3.33
2019-02-24T15:07:26.527Z,3.73
2019-02-24T15:10:11.641Z,3.97
2019-02-24T15:12:46.038Z,3.53
2019-02-24T15:15:21.718Z,3.07
2019-02-24T15:17:52.925Z,3.07
2019-02-24T15:20:24.911Z,3.97
2019-02-24T15:22:57.160Z,3.50
2019-02-24T15:25:27.363Z,16.90
2019-02-24T15:27:57.638Z,22.97
2019-02-24T15:30:30.136Z,14.03
2019-02-24T15:33:00.439Z,6.97
2019-02-24T15:35:30.620Z,4.33
2019-02-24T15:38:00.865Z,3.60
2019-02-24T15:40:31.155Z,3.97
2019-02-24T15:43:01.462Z,3.60
2019-02-24T15:45:31.877Z,4.03
2019-02-24T15:48:02.110Z,3.50
2019-02-24T15:50:32.299Z,4.00
2019-02-24T15:53:02.533Z,3.43
2019-02-24T15:55:37.091Z,3.17
2019-02-24T15:58:07.318Z,3.43
2019-02-24T16:00:37.674Z,3.67
2019-02-24T16:03:07.977Z,3.33
2019-02-24T16:05:38.253Z,3.90
2019-02-24T16:08:08.493Z,4.03
2019-02-24T16:10:40.181Z,4.50
2019-02-24T16:13:16.643Z,4.70
2019-02-24T16:15:42.376Z,5.63
2019-02-24T16:18:12.707Z,4.70
2019-02-24T16:20:44.602Z,4.93
2019-02-24T16:23:14.833Z,10.17
2019-02-24T16:25:45.219Z,8.13
2019-02-24T16:28:15.573Z,11.77
2019-02-24T16:30:45.832Z,13.60
2019-02-24T16:33:16.038Z,8.90
2019-02-24T16:35:46.307Z,5.30
2019-02-24T16:38:16.734Z,5.10
2019-02-24T16:40:47.049Z,6.13
2019-02-24T16:43:20.794Z,6.23
2019-02-24T16:45:51.269Z,6.97
2019-02-24T16:48:21.516Z,6.77
2019-02-24T16:50:51.765Z,7.37
2019-02-24T16:53:22.106Z,7.03
2019-02-24T16:55:52.362Z,7.67
2019-02-24T16:58:22.684Z,6.90
2019-02-24T17:00:54.134Z,5.97
2019-02-24T17:03:24.391Z,5.53
2019-02-24T17:05:54.690Z,6.17
2019-02-24T17:08:25.127Z,7.13
2019-02-24T17:10:55.572Z,7.50
2019-02-24T17:13:25.969Z,6.67
2019-02-24T17:15:56.301Z,5.57
2019-02-24T17:18:26.561Z,4.60
2019-02-24T17:20:56.833Z,5.73
2019-02-24T17:23:27.258Z,5.73
2019-02-24T17:25:58.283Z,5.57
2019-02-24T17:28:28.671Z,5.90
2019-02-24T17:30:59.247Z,7.20
2019-02-24T17:33:31.165Z,7.17
2019-02-24T17:36:03.879Z,5.17
2019-02-24T17:38:34.206Z,6.63
2019-02-24T17:41:04.549Z,7.30
2019-02-24T17:43:36.108Z,6.30
2019-02-24T17:46:06.706Z,5.80
2019-02-24T17:48:37.069Z,6.97
2019-02-24T17:51:07.776Z,6.63
2019-02-24T17:53:39.549Z,6.73
2019-02-24T17:56:25.153Z,6.07
2019-02-24T17:58:55.659Z,5.77
2019-02-24T18:01:26.266Z,6.93
2019-02-24T18:03:56.694Z,6.63
2019-02-24T18:06:27.031Z,8.37
2019-02-24T18:09:02.320Z,21.50
2019-02-24T18:11:34.529Z,11.93
2019-02-24T18:14:28.075Z,14.57
2019-02-24T18:16:58.218Z,14.40
2019-02-24T18:19:30.840Z,12.97
2019-02-24T18:22:01.183Z,10.50
2019-02-24T18:24:31.597Z,9.13
2019-02-24T18:27:01.972Z,9.07
2019-02-24T18:29:32.281Z,9.60
2019-02-24T18:32:04.157Z,8.90
2019-02-24T18:34:34.570Z,8.43
2019-02-24T18:37:05.879Z,11.87
2019-02-24T18:39:36.207Z,7.53
2019-02-24T18:42:08.090Z,9.27
2019-02-24T18:44:38.428Z,15.03
2019-02-24T18:47:08.818Z,14.57
2019-02-24T18:49:39.269Z,17.20
2019-02-24T18:52:11.386Z,14.03
2019-02-24T18:54:41.605Z,15.07
2019-02-24T18:57:15.815Z,14.43
2019-02-24T18:59:46.119Z,11.67
2019-02-24T19:02:16.407Z,9.47
2019-02-24T19:04:51.074Z,9.73
2019-02-24T19:07:24.655Z,9.27
2019-02-24T19:09:56.947Z,9.33
2019-02-24T19:12:29.815Z,10.43
2019-02-24T19:15:00.338Z,13.13
2019-02-24T19:17:30.634Z,12.80
2019-02-24T19:20:05.655Z,13.97
2019-02-24T19:22:38.123Z,15.20
2019-02-24T19:25:08.922Z,18.90
2019-02-24T19:27:39.261Z,16.60
2019-02-24T19:30:11.229Z,13.80
2019-02-24T19:32:41.595Z,12.87
2019-02-24T19:35:12.214Z,12.83
2019-02-24T19:37:42.515Z,12.70
2019-02-24T19:40:14.440Z,14.30
2019-02-24T19:42:44.839Z,9.70
2019-02-24T19:45:20.401Z,9.83
2019-02-24T19:47:50.625Z,10.73
2019-02-24T19:50:22.701Z,10.17
2019-02-24T19:53:17.221Z,10.73
2019-02-24T19:55:49.067Z,9.83
2019-02-24T19:58:20.961Z,11.83
2019-02-24T20:00:55.401Z,13.43
2019-02-24T20:03:26.701Z,12.03
2019-02-24T20:05:57.570Z,12.00
2019-02-24T20:08:27.892Z,10.30
2019-02-24T20:10:58.340Z,10.37
2019-02-24T20:13:28.762Z,10.97
2019-02-24T20:16:00.362Z,11.30
2019-02-24T20:18:31.598Z,10.20
2019-02-24T20:21:03.441Z,10.13
2019-02-24T20:23:34.267Z,10.93
2019-02-24T20:26:04.743Z,10.50
2019-02-24T20:28:34.967Z,10.47
2019-02-24T20:31:05.252Z,11.10
2019-02-24T20:33:36.545Z,10.57
2019-02-24T20:36:06.853Z,11.23
2019-02-24T20:38:37.105Z,12.23
2019-02-24T20:41:07.492Z,12.80
2019-02-24T20:43:37.992Z,14.97
2019-02-24T20:46:08.384Z,13.33
2019-02-24T20:48:38.595Z,12.73
2019-02-24T20:51:10.486Z,11.27
2019-02-24T20:53:42.107Z,10.43
2019-02-24T20:56:12.499Z,11.23
2019-02-24T20:58:43.948Z,11.37
2019-02-24T21:01:14.359Z,10.07
2019-02-24T21:03:44.791Z,10.57
2019-02-24T21:06:15.057Z,8.67
2019-02-24T21:08:45.332Z,10.07
2019-02-24T21:11:15.595Z,8.67
2019-02-24T21:13:46.214Z,8.73
2019-02-24T21:16:16.468Z,8.87
2019-02-24T21:18:46.749Z,10.03
2019-02-24T21:21:17.175Z,11.57
2019-02-24T21:23:47.543Z,10.50
2019-02-24T21:26:17.903Z,10.30
2019-02-24T21:28:49.021Z,11.50
2019-02-24T21:31:19.341Z,13.80
2019-02-24T21:33:49.606Z,11.53
2019-02-24T21:36:22.195Z,15.33
2019-02-24T21:38:52.535Z,17.40
2019-02-24T21:41:22.793Z,14.73
2019-02-24T21:43:53.029Z,13.37
2019-02-24T21:46:23.280Z,19.27
2019-02-24T21:48:53.573Z,12.80
2019-02-24T21:51:24.283Z,11.87
2019-02-24T21:53:54.560Z,16.13
2019-02-24T21:56:24.783Z,14.70
2019-02-24T21:58:54.969Z,12.17
2019-02-24T22:01:25.217Z,9.83
2019-02-24T22:03:55.470Z,13.27
2019-02-24T22:06:26.707Z,11.30
2019-02-24T22:08:57.080Z,13.70
2019-02-24T22:11:27.285Z,12.27
2019-02-24T22:13:57.709Z,11.30
2019-02-24T22:16:28.036Z,11.13
2019-02-24T22:18:58.301Z,9.50
2019-02-24T22:21:28.555Z,9.40
2019-02-24T22:23:58.920Z,10.33
2019-02-24T22:26:29.158Z,10.67
2019-02-24T22:28:59.394Z,8.97
2019-02-24T22:31:29.596Z,9.10
2019-02-24T22:33:59.902Z,9.83
2019-02-24T22:36:30.112Z,10.73
2019-02-24T22:39:00.395Z,11.20
2019-02-24T22:41:31.317Z,11.33
2019-02-24T22:44:01.643Z,10.53
2019-02-24T22:46:31.928Z,10.23
2019-02-24T22:49:03.207Z,10.77
2019-02-24T22:51:33.454Z,10.00
2019-02-24T22:54:03.841Z,10.70
2019-02-24T22:56:34.102Z,11.10
2019-02-24T22:59:04.342Z,9.60
2019-02-24T23:01:38.039Z,11.50
2019-02-24T23:04:13.226Z,9.20
2019-02-24T23:06:44.243Z,8.77
2019-02-24T23:09:21.428Z,9.77
2019-02-24T23:11:51.897Z,10.73
2019-02-24T23:14:23.694Z,10.33
2019-02-24T23:16:54.004Z,9.83
2019-02-24T23:19:24.449Z,10.70
2019-02-24T23:21:54.669Z,10.20
2019-02-24T23:24:24.894Z,10.80
2019-02-24T23:26:55.168Z,10.87
2019-02-24T23:29:25.381Z,9.70
2019-02-24T23:31:55.878Z,10.57
2019-02-24T23:34:26.121Z,11.90
2019-02-24T23:36:56.324Z,10.93
2019-02-24T23:39:26.588Z,10.60
2019-02-24T23:41:56.813Z,10.37
2019-02-24T23:44:27.049Z,11.20
2019-02-24T23:46:57.375Z,9.87
2019-02-24T23:49:27.655Z,10.00
2019-02-24T23:51:58.057Z,10.40
2019-02-24T23:54:28.315Z,9.00
2019-02-24T23:56:58.545Z,10.47
2019-02-24T23:59:28.735Z,9.83
